Time;durP1;ratioP1;P1;durP2;ratioP2;P2;SDS_P1;SDS_P2;PMS_P1;PMS_P2;Temp;Humidity;BMP_temperature;BMP_pressure;BME280_temperature;BME280_humidity;BME280_pressure;Samples;Min_cycle;Max_cycle;Signal;HPM_P1;HPM_P2
2022/06/29 00:01:37;;;;;;;14.25;7.13;;;;;;;19.81;68.36;94990.56;4153433;28;20068;-56
2022/06/29 00:03:39;;;;;;;8.88;6.40;;;;;;;19.69;69.15;94984.25;4172228;28;20048;-54
2022/06/29 00:05:41;;;;;;;8.70;7.20;;;;;;;19.69;69.11;94985.06;4167734;28;20065;-57
2022/06/29 00:07:43;;;;;;;8.15;7.28;;;;;;;19.77;68.95;94992.06;4169582;28;20045;-56
2022/06/29 00:09:45;;;;;;;9.05;6.93;;;;;;;19.83;69.35;94993.84;4160042;28;20058;-56
2022/06/29 00:11:47;;;;;;;9.35;6.68;;;;;;;19.92;69.24;94992.59;4171583;28;20119;-59
2022/06/29 00:13:49;;;;;;;9.13;6.47;;;;;;;20.00;69.15;94988.88;4159083;28;20139;-57
2022/06/29 00:15:50;;;;;;;9.50;6.45;;;;;;;20.11;68.73;94992.72;4160725;28;20088;-53
2022/06/29 00:17:52;;;;;;;10.02;7.25;;;;;;;20.17;68.30;94995.34;4157150;28;20080;-51
2022/06/29 00:19:54;;;;;;;7.53;6.80;;;;;;;20.22;68.15;94994.75;4171219;28;20114;-54
2022/06/29 00:21:55;;;;;;;11.35;6.85;;;;;;;20.25;68.08;94991.66;4159192;28;20046;-52
2022/06/29 00:23:57;;;;;;;12.27;6.55;;;;;;;20.23;68.32;94991.03;4153346;28;20054;-53
2022/06/29 00:25:59;;;;;;;7.68;6.88;;;;;;;20.22;68.41;94986.78;4151955;28;20116;-54
2022/06/29 00:28:01;;;;;;;8.45;7.03;;;;;;;20.26;68.37;94987.94;4171160;28;20053;-53
2022/06/29 00:30:03;;;;;;;9.95;6.85;;;;;;;20.30;68.48;94996.34;4160374;28;20054;-54
2022/06/29 00:32:05;;;;;;;9.50;7.13;;;;;;;20.33;68.26;94979.97;4158725;28;20484;-53
2022/06/29 00:34:07;;;;;;;9.43;7.13;;;;;;;20.35;68.23;94981.38;4158227;28;20111;-56
2022/06/29 00:36:09;;;;;;;11.13;7.00;;;;;;;20.38;68.10;94988.09;4161467;28;20090;-54
2022/06/29 00:38:11;;;;;;;10.18;6.95;;;;;;;20.40;68.05;94984.19;4159504;28;20112;-53
2022/06/29 00:40:13;;;;;;;9.07;7.07;;;;;;;20.40;67.86;94984.19;4163458;28;20586;-49
2022/06/29 00:42:14;;;;;;;7.95;7.15;;;;;;;20.42;68.19;94976.00;4159105;28;20408;-54
2022/06/29 00:44:18;;;;;;;8.88;7.35;;;;;;;20.44;68.02;94973.97;4159856;28;20103;-53
2022/06/29 00:46:19;;;;;;;10.63;7.70;;;;;;;20.42;68.07;94968.03;4158977;28;20053;-51
2022/06/29 00:48:21;;;;;;;12.32;7.45;;;;;;;20.40;67.76;94980.72;4157355;28;20417;-52
2022/06/29 00:50:26;;;;;;;7.72;6.95;;;;;;;20.38;67.99;94974.81;4170136;28;20056;-55
2022/06/29 00:52:29;;;;;;;9.32;7.43;;;;;;;20.38;67.80;94977.47;4160093;28;20127;-53
2022/06/29 00:54:39;;;;;;;8.57;7.53;;;;;;;20.38;67.39;94966.81;4157222;28;20100;-49
2022/06/29 00:56:41;;;;;;;10.65;7.63;;;;;;;20.35;67.75;94969.91;4148767;28;20053;-49
2022/06/29 00:58:45;;;;;;;7.80;7.10;;;;;;;20.33;68.28;94966.66;4149500;28;20046;-53
2022/06/29 01:00:46;;;;;;;;;;;;;;;20.29;68.36;94971.59;4147465;28;20474;-52
2022/06/29 01:02:48;;;;;;;8.20;7.40;;;;;;;20.30;68.29;94967.06;4157527;28;19921;-50
2022/06/29 01:04:51;;;;;;;10.07;7.82;;;;;;;20.31;68.33;94961.53;4162024;28;20114;-52
2022/06/29 01:06:52;;;;;;;12.13;8.07;;;;;;;20.33;68.33;94964.00;4162464;28;20061;-51
2022/06/29 01:08:54;;;;;;;8.68;7.75;;;;;;;20.32;68.33;94965.81;4151811;28;20054;-52
2022/06/29 01:10:56;;;;;;;11.05;7.50;;;;;;;20.31;68.46;94964.19;4161871;28;20053;-53
2022/06/29 01:12:58;;;;;;;8.90;7.22;;;;;;;20.26;68.65;94964.00;4175284;28;20593;-51
2022/06/29 01:14:59;;;;;;;9.98;7.15;;;;;;;20.21;68.85;94962.00;4158669;28;20141;-53
2022/06/29 01:17:01;;;;;;;10.48;7.45;;;;;;;20.18;68.77;94958.97;4154440;28;20052;-50
2022/06/29 01:19:03;;;;;;;10.13;8.05;;;;;;;20.20;68.78;94957.72;4160246;28;20050;-53
2022/06/29 01:21:06;;;;;;;11.25;8.23;;;;;;;20.20;68.88;94949.72;4162070;28;20061;-52
2022/06/29 01:23:07;;;;;;;9.73;7.65;;;;;;;20.17;68.88;94944.00;4146622;28;20515;-52
2022/06/29 01:25:09;;;;;;;8.93;7.65;;;;;;;20.19;68.86;94949.94;4162018;28;20471;-53
2022/06/29 01:27:15;;;;;;;10.80;7.40;;;;;;;20.17;68.72;94944.00;4162007;28;20053;-52
2022/06/29 01:29:17;;;;;;;9.98;7.20;;;;;;;20.18;68.49;94949.13;4159940;28;20091;-50
2022/06/29 01:33:47;;;;;;;10.20;7.40;;;;;;;20.17;68.61;94949.34;4164360;28;20043;-53
2022/06/29 01:35:50;;;;;;;11.07;7.72;;;;;;;20.21;68.53;94963.84;4164122;28;20128;-53
2022/06/29 01:37:52;;;;;;;10.38;7.93;;;;;;;20.23;68.27;94953.81;4172260;28;20111;-50
2022/06/29 01:39:53;;;;;;;9.40;7.68;;;;;;;20.25;68.25;94962.38;4158776;28;20053;-52
2022/06/29 01:41:56;;;;;;;10.25;7.70;;;;;;;20.24;68.28;94963.41;4157208;28;20046;-52
2022/06/29 01:43:58;;;;;;;9.95;7.72;;;;;;;20.24;68.40;94963.41;4159802;28;20132;-53
2022/06/29 01:46:01;;;;;;;8.75;7.88;;;;;;;20.21;68.48;94956.66;4159898;28;20053;-50
2022/06/29 01:48:04;;;;;;;9.60;7.78;;;;;;;20.18;68.70;94966.94;4159581;28;20049;-54
2022/06/29 01:50:06;;;;;;;10.50;7.90;;;;;;;20.16;68.76;94958.34;4170553;28;20044;-53
2022/06/29 01:52:08;;;;;;;8.35;7.45;;;;;;;20.15;68.64;94956.69;4165404;28;20284;-53
2022/06/29 01:54:09;;;;;;;8.57;7.53;;;;;;;20.13;68.63;94956.91;4160721;28;20810;-52
2022/06/29 01:56:11;;;;;;;12.02;7.53;;;;;;;20.15;68.72;94951.38;4147734;28;20137;-50
2022/06/29 01:58:14;;;;;;;9.55;7.93;;;;;;;20.15;68.73;94951.38;4166795;28;20045;-50
2022/06/29 02:00:15;;;;;;;12.25;7.80;;;;;;;20.15;68.57;94954.03;4160985;28;20320;-52
2022/06/29 02:02:17;;;;;;;10.70;8.35;;;;;;;20.10;68.81;94943.25;4155690;28;20499;-51
2022/06/29 02:04:19;;;;;;;12.55;7.90;;;;;;;20.07;68.88;94943.66;4173710;28;20110;-50
2022/06/29 02:06:23;;;;;;;8.82;7.78;;;;;;;20.08;68.81;94938.13;4160488;28;20065;-50
2022/06/29 02:08:24;;;;;;;;;;;;;;;20.05;68.96;94934.06;4160268;28;20061;-53
2022/06/29 02:10:26;;;;;;;9.63;8.15;;;;;;;20.07;68.82;94936.50;4168309;28;19920;-52
2022/06/29 02:12:28;;;;;;;9.05;7.13;;;;;;;20.05;69.04;94933.25;4152655;28;20141;-57
2022/06/29 02:14:29;;;;;;;11.80;9.02;;;;;;;20.03;69.01;94924.66;4158164;28;20042;-55
2022/06/29 02:16:31;;;;;;;11.05;7.78;;;;;;;20.01;68.96;94927.53;4161468;28;20041;-56
2022/06/29 02:18:33;;;;;;;9.65;8.60;;;;;;;20.02;68.87;94931.00;4159011;28;20065;-56
2022/06/29 02:20:35;;;;;;;10.35;8.40;;;;;;;20.02;68.80;94931.78;4159965;28;20495;-57
2022/06/29 02:22:37;;;;;;;13.60;9.05;;;;;;;20.02;69.10;94931.00;4156698;28;20046;-56
2022/06/29 02:24:38;;;;;;;10.07;9.07;;;;;;;20.01;69.18;94930.19;4159961;28;20083;-55
2022/06/29 02:26:40;;;;;;;11.25;8.80;;;;;;;19.98;69.25;94925.31;4160468;28;20046;-56
2022/06/29 02:28:42;;;;;;;9.95;8.95;;;;;;;19.95;69.13;94931.03;4159994;28;20119;-56
2022/06/29 02:35:24;;;;;;;13.05;9.50;;;;;;;19.93;69.25;94925.09;4160932;28;20108;-56
2022/06/29 02:37:26;;;;;;;10.02;8.75;;;;;;;19.91;69.37;94927.16;4152715;28;20145;-55
2022/06/29 02:39:28;;;;;;;13.48;9.45;;;;;;;19.88;69.42;94924.94;4155259;28;20057;-54
2022/06/29 02:41:30;;;;;;;12.07;10.27;;;;;;;19.88;69.69;94924.94;4160791;28;20454;-57
2022/06/29 02:43:31;;;;;;;10.55;9.48;;;;;;;19.91;69.53;94913.03;4160053;28;20378;-55
2022/06/29 02:45:33;;;;;;;10.38;9.25;;;;;;;19.95;69.31;94912.41;4159414;28;20060;-54
2022/06/29 02:47:35;;;;;;;11.68;8.32;;;;;;;19.95;69.06;94908.94;4154465;28;20491;-56
2022/06/29 02:49:37;;;;;;;11.05;8.80;;;;;;;19.92;69.30;94914.66;4150772;28;20053;-57
2022/06/29 02:51:38;;;;;;;9.93;8.45;;;;;;;19.88;69.24;94908.97;4169885;28;20056;-57
2022/06/29 02:53:40;;;;;;;11.00;9.30;;;;;;;19.64;69.98;94905.16;4174828;28;20048;-58
2022/06/29 02:55:42;;;;;;;17.95;8.57;;;;;;;18.91;71.54;94908.78;4157111;28;20099;-56
2022/06/29 02:57:43;;;;;;;17.00;8.68;;;;;;;18.38;73.33;94912.22;4154413;28;20045;-56
2022/06/29 02:59:45;;;;;;;10.07;7.85;;;;;;;18.00;74.61;94918.06;4158430;28;20049;-56
2022/06/29 03:01:47;;;;;;;11.73;8.13;;;;;;;17.79;75.46;94918.97;4159958;28;20057;-57
2022/06/29 03:03:49;;;;;;;9.52;8.20;;;;;;;17.92;75.64;94910.28;4158530;28;20442;-55
2022/06/29 03:05:50;;;;;;;9.77;8.63;;;;;;;18.05;75.29;94913.97;4158297;28;20054;-54
2022/06/29 03:07:52;;;;;;;16.17;7.90;;;;;;;18.14;74.62;94912.78;4161030;28;20052;-56
2022/06/29 03:09:54;;;;;;;10.85;7.75;;;;;;;18.25;74.05;94909.53;4162496;28;20048;-55
2022/06/29 03:11:55;;;;;;;13.23;7.18;;;;;;;18.08;74.19;94914.38;4163808;28;20081;-57
2022/06/29 03:13:57;;;;;;;9.88;7.95;;;;;;;18.09;74.10;94910.75;4159213;28;20565;-57
2022/06/29 03:16:00;;;;;;;12.75;8.27;;;;;;;18.05;74.07;94913.97;4173170;28;20053;-54
2022/06/29 03:18:02;;;;;;;9.80;8.80;;;;;;;18.03;74.54;94916.03;4145996;28;20141;-56
2022/06/29 03:20:05;;;;;;;14.68;9.52;;;;;;;18.11;74.75;94911.34;4158634;28;20053;-58
2022/06/29 03:22:07;;;;;;;13.95;9.90;;;;;;;18.19;74.59;94920.94;4154927;28;20046;-54
2022/06/29 03:24:09;;;;;;;17.55;10.68;;;;;;;18.01;75.68;94914.38;4153358;28;20049;-58
2022/06/29 03:26:12;;;;;;;14.30;11.48;;;;;;;17.87;76.61;94910.03;4159758;28;20083;-54
2022/06/29 03:28:13;;;;;;;14.07;10.15;;;;;;;17.87;77.04;94911.88;4158194;28;20464;-56
2022/06/29 03:30:16;;;;;;;13.88;10.77;;;;;;;17.94;76.61;94910.06;4156557;28;20054;-54
2022/06/29 03:32:18;;;;;;;17.20;11.38;;;;;;;18.09;76.15;94913.38;4144968;28;20060;-55
2022/06/29 03:34:20;;;;;;;17.33;11.98;;;;;;;18.19;75.81;94916.44;4153118;28;20103;-57
2022/06/29 03:36:21;;;;;;;13.43;10.73;;;;;;;18.23;75.48;94918.72;4159434;28;20053;-55
2022/06/29 03:38:23;;;;;;;17.00;10.00;;;;;;;18.32;75.14;94918.31;4158946;28;20057;-55
2022/06/29 03:40:25;;;;;;;11.85;10.55;;;;;;;18.42;74.59;94915.28;4159388;28;20168;-54
2022/06/29 03:42:27;;;;;;;12.45;10.18;;;;;;;18.55;73.44;94919.78;4159118;28;20053;-56
2022/06/29 03:44:29;;;;;;;14.10;9.68;;;;;;;18.48;72.98;94917.13;4159755;28;20103;-53
2022/06/29 03:46:31;;;;;;;11.50;8.73;;;;;;;18.51;72.73;94907.94;4159184;28;20091;-56
2022/06/29 03:48:33;;;;;;;10.27;8.73;;;;;;;18.27;72.65;94918.13;4145902;28;20129;-57
2022/06/29 03:50:34;;;;;;;12.73;8.93;;;;;;;18.12;72.54;94918.28;4156774;28;20103;-57
2022/06/29 03:52:37;;;;;;;9.30;8.25;;;;;;;17.92;73.72;94910.28;4159155;28;20053;-57
2022/06/29 03:54:38;;;;;;;9.95;8.23;;;;;;;17.79;73.69;94905.72;4152394;28;20566;-57
2022/06/29 03:56:40;;;;;;;11.05;8.93;;;;;;;17.70;73.90;94911.38;4168110;28;20057;-56
2022/06/29 03:58:42;;;;;;;10.68;9.43;;;;;;;17.42;75.23;94906.16;4172433;28;20257;-57
2022/06/29 04:00:44;;;;;;;10.23;9.13;;;;;;;17.43;75.78;94907.81;4161017;28;20132;-54
2022/06/29 04:02:46;;;;;;;15.15;10.00;;;;;;;17.56;75.40;94908.69;4156123;28;20050;-57
2022/06/29 04:04:48;;;;;;;11.57;10.00;;;;;;;17.46;76.48;94899.47;4168087;28;20136;-55
2022/06/29 04:06:49;;;;;;;13.25;11.48;;;;;;;17.53;76.23;94895.00;4158951;28;20053;-55
2022/06/29 04:08:51;;;;;;;12.00;10.52;;;;;;;17.67;76.23;94895.88;4157158;28;20053;-56
2022/06/29 04:10:53;;;;;;;13.65;9.88;;;;;;;17.91;75.74;94890.06;4170602;28;20106;-57
2022/06/29 04:12:54;;;;;;;14.63;10.88;;;;;;;18.16;74.54;94893.00;4157098;28;20116;-57
2022/06/29 04:14:57;;;;;;;11.77;10.57;;;;;;;18.32;74.12;94899.75;4147477;28;20037;-57
2022/06/29 04:16:58;;;;;;;18.63;11.00;;;;;;;18.50;73.45;94891.22;4159852;28;20140;-57
2022/06/29 04:19:00;;;;;;;15.55;10.45;;;;;;;18.70;73.02;94885.09;4146509;28;20119;-60
2022/06/29 04:21:08;;;;;;;12.57;9.27;;;;;;;18.92;72.08;94877.75;4155743;28;20053;-58
2022/06/29 04:23:10;;;;;;;13.50;10.57;;;;;;;19.10;71.14;94877.09;4145981;28;20088;-56
2022/06/29 04:25:11;;;;;;;14.07;9.80;;;;;;;19.30;70.82;94885.03;4158590;28;20046;-56
2022/06/29 04:27:13;;;;;;;11.80;9.55;;;;;;;19.51;70.35;94878.63;4159006;28;20349;-57
2022/06/29 04:29:15;;;;;;;10.68;9.23;;;;;;;19.69;69.55;94883.28;4147829;28;20416;-58
2022/06/29 04:31:17;;;;;;;11.60;8.95;;;;;;;19.84;69.20;94886.50;4155525;28;20061;-55
2022/06/29 04:33:18;;;;;;;10.32;8.55;;;;;;;19.95;68.55;94888.47;4156830;28;20054;-55
2022/06/29 04:35:21;;;;;;;12.32;8.32;;;;;;;20.03;68.70;94882.91;4159529;28;20046;-54
2022/06/29 04:37:22;;;;;;;11.32;8.23;;;;;;;20.18;68.46;94889.81;4162603;28;20061;-54
2022/06/29 04:39:24;;;;;;;10.57;8.98;;;;;;;20.31;68.04;94886.25;4162252;28;20496;-56
2022/06/29 04:41:26;;;;;;;10.95;8.70;;;;;;;20.41;67.57;94882.09;4171525;28;20053;-56
2022/06/29 04:43:29;;;;;;;13.70;10.10;;;;;;;20.45;67.27;94883.25;4165604;28;20533;-55
2022/06/29 04:47:51;;;;;;;11.23;9.23;;;;;;;20.57;66.50;94879.91;4153959;28;20042;-59
2022/06/29 04:49:53;;;;;;;11.57;9.38;;;;;;;20.63;65.94;94882.56;4162060;28;20145;-56
2022/06/29 04:51:55;;;;;;;13.50;9.60;;;;;;;20.74;65.74;94883.69;4165408;28;20491;-56
2022/06/29 04:53:58;;;;;;;11.13;8.98;;;;;;;20.78;65.49;94887.56;4161211;28;20045;-59
2022/06/29 04:56:00;;;;;;;14.13;10.15;;;;;;;20.68;65.61;94889.88;4149449;28;20113;-55
2022/06/29 04:58:02;;;;;;;15.20;11.82;;;;;;;20.35;66.55;94896.25;4157945;28;20087;-57
2022/06/29 05:00:04;;;;;;;15.77;11.32;;;;;;;20.26;67.26;94894.84;4165294;28;20064;-57
2022/06/29 05:02:05;;;;;;;14.40;11.27;;;;;;;20.07;68.17;94901.94;4161317;28;20127;-55
2022/06/29 05:04:07;;;;;;;12.93;10.95;;;;;;;20.05;68.28;94898.66;4160790;28;20487;-54
2022/06/29 05:06:09;;;;;;;14.93;10.45;;;;;;;20.11;68.54;94904.97;4154826;28;20098;-57
2022/06/29 05:08:11;;;;;;;13.57;10.80;;;;;;;20.23;68.44;94912.06;4156560;28;20116;-58
2022/06/29 05:10:13;;;;;;;15.95;11.23;;;;;;;20.19;67.81;94908.19;4162720;28;20071;-55
2022/06/29 05:12:14;;;;;;;17.80;11.88;;;;;;;20.14;68.07;94908.03;4167806;28;20053;-58
2022/06/29 05:14:16;;;;;;;12.27;10.93;;;;;;;20.12;68.45;94901.28;4148719;28;20054;-56
2022/06/29 05:16:19;;;;;;;13.95;10.85;;;;;;;20.27;68.26;94904.47;4160793;28;20445;-56
2022/06/29 05:18:22;;;;;;;15.25;10.48;;;;;;;20.46;67.63;94908.84;4160477;28;20057;-58
2022/06/29 05:20:30;;;;;;;14.40;10.82;;;;;;;20.68;66.76;94907.72;4161945;28;20072;-56
2022/06/29 05:22:32;;;;;;;13.30;11.93;;;;;;;20.82;65.88;94899.41;4161634;28;20061;-52
2022/06/29 05:24:33;;;;;;;17.75;11.38;;;;;;;20.95;65.15;94902.97;4152606;28;20365;-54
2022/06/29 05:26:37;;;;;;;14.63;12.25;;;;;;;20.96;65.32;94902.75;4148058;28;20050;-52
2022/06/29 05:28:39;;;;;;;16.25;12.18;;;;;;;21.03;65.29;94903.50;4161680;28;20050;-53
2022/06/29 05:30:41;;;;;;;15.38;11.70;;;;;;;21.10;64.91;94899.97;4154641;28;20054;-50
2022/06/29 05:32:43;;;;;;;15.95;12.13;;;;;;;21.18;64.64;94894.34;4143784;28;20867;-50
2022/06/29 05:34:45;;;;;;;15.68;12.88;;;;;;;21.27;64.67;94903.69;4158611;28;20054;-52
2022/06/29 05:36:47;;;;;;;24.40;14.60;;;;;;;21.36;64.59;94904.22;4158793;28;20080;-52
2022/06/29 05:38:48;;;;;;;15.98;11.73;;;;;;;21.36;64.37;94904.22;4150129;28;20561;-52
2022/06/29 05:40:50;;;;;;;17.20;12.75;;;;;;;21.40;64.26;94890.25;4165984;28;20465;-51
2022/06/29 05:42:52;;;;;;;18.35;12.70;;;;;;;21.26;64.88;94902.88;4170223;28;20053;-53
2022/06/29 05:44:53;;;;;;;14.15;12.07;;;;;;;21.18;64.73;94908.47;4161055;28;20392;-51
2022/06/29 05:46:55;;;;;;;18.35;12.23;;;;;;;21.03;65.08;94910.69;4160355;28;20126;-54
2022/06/29 05:48:58;;;;;;;15.90;12.77;;;;;;;20.96;66.13;94909.94;4159018;28;20053;-54
2022/06/29 05:51:00;;;;;;;15.60;12.60;;;;;;;20.92;66.48;94904.22;4161144;28;20492;-47
2022/06/29 05:53:01;;;;;;;14.05;12.18;;;;;;;20.75;66.10;94917.25;4157151;28;20085;-49
2022/06/29 05:55:04;;;;;;;18.27;12.52;;;;;;;20.72;66.20;94924.88;4144706;28;20108;-51
2022/06/29 05:57:06;;;;;;;16.75;12.93;;;;;;;20.65;66.70;94931.06;4169588;28;20052;-52
2022/06/29 05:59:08;;;;;;;16.60;12.75;;;;;;;20.37;67.08;94931.44;4161943;28;20054;-55
2022/06/29 06:01:10;;;;;;;19.05;13.35;;;;;;;20.27;67.78;94931.06;4160992;28;20188;-53
2022/06/29 06:03:11;;;;;;;23.27;13.20;;;;;;;20.41;68.07;94926.47;4159142;28;20049;-51
2022/06/29 06:05:13;;;;;;;17.08;13.38;;;;;;;20.51;67.68;94932.16;4160583;28;20351;-49
2022/06/29 06:07:15;;;;;;;17.17;13.50;;;;;;;20.71;66.88;94921.38;4161078;28;20057;-53
2022/06/29 06:09:21;;;;;;;19.00;14.55;;;;;;;20.77;67.07;94930.34;4152761;28;20201;-51
2022/06/29 06:11:22;;;;;;;21.02;14.15;;;;;;;20.72;66.95;94927.53;4170348;28;20049;-53
2022/06/29 06:13:24;;;;;;;17.17;13.70;;;;;;;20.51;66.86;94928.69;4149913;28;20477;-53
2022/06/29 06:15:26;;;;;;;20.83;13.93;;;;;;;20.35;67.96;94929.97;4161015;28;20122;-52
2022/06/29 06:17:28;;;;;;;17.75;13.20;;;;;;;20.44;67.53;94926.06;4159710;28;20065;-55
2022/06/29 06:19:35;;;;;;;23.65;13.30;;;;;;;20.62;67.09;94922.69;4158133;28;20049;-53
2022/06/29 06:21:37;;;;;;;15.55;12.57;;;;;;;20.89;66.80;94920.66;4160472;28;20046;-52
2022/06/29 06:23:39;;;;;;;17.50;12.40;;;;;;;21.19;65.92;94920.78;4160641;28;20052;-52
2022/06/29 06:25:41;;;;;;;13.60;11.68;;;;;;;21.46;65.01;94917.88;4151724;28;20466;-53
2022/06/29 06:27:43;;;;;;;15.32;11.40;;;;;;;21.67;64.12;94909.44;4155913;28;20440;-49
2022/06/29 06:29:45;;;;;;;16.08;12.38;;;;;;;21.91;63.08;94906.91;4159932;28;20108;-52
2022/06/29 06:31:47;;;;;;;18.15;13.05;;;;;;;22.08;62.83;94902.56;4159935;28;20075;-54
2022/06/29 06:33:49;;;;;;;17.25;12.15;;;;;;;22.24;62.56;94903.00;4159059;28;20096;-52
2022/06/29 06:35:50;;;;;;;15.77;12.15;;;;;;;22.36;61.91;94900.38;4151765;28;20057;-49
2022/06/29 06:37:52;;;;;;;16.25;11.50;;;;;;;22.48;61.89;94901.25;4155506;28;20064;-50
2022/06/29 06:42:14;;;;;;;15.20;10.13;;;;;;;22.62;59.71;94904.50;4160371;28;20126;-51
2022/06/29 06:44:16;;;;;;;16.77;9.65;;;;;;;22.53;59.86;94893.34;4160193;28;20321;-49
2022/06/29 06:46:18;;;;;;;16.38;9.93;;;;;;;22.60;59.81;94891.38;4160744;28;20045;-52
2022/06/29 06:48:20;;;;;;;15.07;10.13;;;;;;;22.74;59.54;94896.53;4159192;28;20101;-52
2022/06/29 06:50:22;;;;;;;11.48;8.05;;;;;;;22.85;58.69;94896.53;4160057;28;20053;-50
2022/06/29 06:52:24;;;;;;;17.45;9.90;;;;;;;22.96;58.49;94896.78;4159500;28;20111;-48
2022/06/29 06:54:26;;;;;;;12.25;9.10;;;;;;;23.11;58.02;94894.50;4157978;28;20049;-49
2022/06/29 06:56:27;;;;;;;13.30;9.80;;;;;;;23.25;57.33;94889.72;4152116;28;20053;-48
2022/06/29 06:58:29;;;;;;;13.52;9.75;;;;;;;23.33;57.67;94891.22;4159917;28;20126;-51
2022/06/29 07:00:31;;;;;;;12.70;9.93;;;;;;;23.31;57.41;94883.44;4159880;28;20045;-52
2022/06/29 07:02:33;;;;;;;14.43;10.48;;;;;;;23.30;57.71;94877.28;4157727;28;20470;-51
2022/06/29 07:04:34;;;;;;;13.20;10.25;;;;;;;23.26;57.41;94876.13;4160130;28;20053;-53
2022/06/29 07:06:36;;;;;;;17.67;9.90;;;;;;;23.07;58.45;94885.31;4159814;28;20132;-53
2022/06/29 07:08:39;;;;;;;20.70;10.65;;;;;;;22.92;59.78;94880.41;4150899;28;20069;-48
2022/06/29 07:10:41;;;;;;;14.82;10.73;;;;;;;22.94;58.97;94888.19;4164880;28;20520;-51
2022/06/29 07:12:42;;;;;;;19.83;10.82;;;;;;;23.10;58.76;94883.00;4147347;28;20054;-51
2022/06/29 07:14:44;;;;;;;12.45;10.20;;;;;;;23.26;58.88;94880.66;4160021;28;20046;-53
2022/06/29 07:16:46;;;;;;;10.93;9.18;;;;;;;23.22;58.09;94885.66;4165898;28;20048;-54
2022/06/29 07:18:48;;;;;;;13.00;8.60;;;;;;;22.94;58.21;94890.84;4166081;28;20061;-51
2022/06/29 07:20:50;;;;;;;10.63;8.43;;;;;;;23.04;57.87;94889.28;4171210;28;20633;-48
2022/06/29 07:22:51;;;;;;;19.70;9.55;;;;;;;23.02;57.94;94887.88;4160390;28;20057;-53
2022/06/29 07:24:53;;;;;;;10.40;7.25;;;;;;;23.04;57.56;94880.44;4146261;28;20053;-50
2022/06/29 07:26:56;;;;;;;9.23;7.65;;;;;;;22.99;55.69;94883.75;4160063;28;20084;-52
2022/06/29 07:28:58;;;;;;;12.25;6.93;;;;;;;22.73;55.46;94878.88;4167835;28;20118;-52
2022/06/29 07:30:59;;;;;;;12.55;7.10;;;;;;;22.89;56.04;94881.69;4157734;28;20132;-49
2022/06/29 07:33:01;;;;;;;11.73;6.63;;;;;;;23.16;55.48;94886.59;4155412;28;20061;-56
2022/06/29 07:35:03;;;;;;;8.93;6.90;;;;;;;23.45;56.02;94884.81;4158615;28;20122;-58
2022/06/29 07:37:05;;;;;;;11.63;8.43;;;;;;;23.75;55.22;94889.19;4164387;28;20079;-55
2022/06/29 07:39:07;;;;;;;10.30;7.95;;;;;;;23.87;55.10;94881.16;4168460;28;20152;-56
2022/06/29 07:41:08;;;;;;;16.92;11.13;;;;;;;23.88;54.62;94872.09;4156086;28;20052;-57
2022/06/29 07:43:10;;;;;;;15.38;9.57;;;;;;;24.04;54.84;94883.88;4172252;28;20052;-59
2022/06/29 07:45:13;;;;;;;13.73;8.57;;;;;;;24.15;54.94;94879.53;4157755;28;20046;-57
2022/06/29 07:47:14;;;;;;;13.73;7.10;;;;;;;24.35;53.69;94871.91;4158983;28;20114;-57
2022/06/29 07:49:16;;;;;;;10.40;7.30;;;;;;;24.47;53.08;94872.63;4149941;28;20470;-57
2022/06/29 07:51:18;;;;;;;10.40;6.53;;;;;;;24.61;51.96;94873.16;4158317;28;20478;-59
2022/06/29 07:53:20;;;;;;;12.20;7.13;;;;;;;24.66;52.29;94873.25;4157912;28;20056;-57
2022/06/29 07:55:24;;;;;;;9.02;7.68;;;;;;;24.78;52.46;94875.03;4158716;28;20530;-56
2022/06/29 07:57:26;;;;;;;13.02;7.80;;;;;;;24.89;52.38;94874.97;4146985;28;20081;-57
2022/06/29 07:59:28;;;;;;;15.13;7.35;;;;;;;24.97;52.57;94873.72;4159177;28;20522;-57
2022/06/29 08:01:29;;;;;;;11.45;7.63;;;;;;;25.04;52.39;94869.03;4167299;28;20053;-57
2022/06/29 08:03:32;;;;;;;14.98;7.65;;;;;;;25.17;51.88;94867.88;4160249;28;20065;-54
2022/06/29 08:05:36;;;;;;;8.07;6.63;;;;;;;25.33;51.97;94866.25;4157784;28;20054;-55
2022/06/29 08:07:38;;;;;;;11.48;7.72;;;;;;;25.49;51.74;94861.88;4157303;28;20119;-56
2022/06/29 08:09:40;;;;;;;12.43;8.32;;;;;;;25.56;51.33;94859.84;4155693;28;20046;-56
2022/06/29 08:11:42;;;;;;;10.77;7.95;;;;;;;25.62;51.40;94860.69;4169490;28;20132;-56
2022/06/29 08:13:44;;;;;;;10.15;7.32;;;;;;;25.69;51.20;94864.84;4158613;28;20104;-57
2022/06/29 08:15:45;;;;;;;9.48;7.00;;;;;;;25.78;50.64;94861.72;4159644;28;20360;-58
2022/06/29 08:17:48;;;;;;;11.15;7.60;;;;;;;25.80;50.79;94859.59;4155617;28;20583;-57
2022/06/29 08:19:50;;;;;;;11.40;7.03;;;;;;;25.77;50.25;94866.28;4155877;28;20045;-57
2022/06/29 08:21:52;;;;;;;9.85;6.85;;;;;;;25.80;50.33;94864.97;4148698;28;20388;-55
2022/06/29 08:23:53;;;;;;;10.13;6.55;;;;;;;25.89;50.24;94853.56;4151269;28;20504;-57
2022/06/29 08:25:56;;;;;;;12.13;6.80;;;;;;;26.00;50.00;94862.53;4153922;28;20046;-57
2022/06/29 08:28:18;;;;;;;12.15;7.57;;;;;;;26.12;49.71;94868.56;4145225;28;20365;-55
2022/06/29 08:30:20;;;;;;;7.72;6.22;;;;;;;26.24;49.22;94864.94;4158232;28;20079;-52
2022/06/29 08:32:21;;;;;;;9.50;6.95;;;;;;;26.31;49.11;94874.41;4158778;28;20126;-54
2022/06/29 08:34:33;;;;;;;9.27;6.45;;;;;;;26.20;49.40;94875.38;4158751;28;20114;-51
2022/06/29 08:36:35;;;;;;;10.40;6.53;;;;;;;26.03;49.67;94870.09;4157790;28;20491;-52
2022/06/29 08:38:50;;;;;;;7.15;6.30;;;;;;;25.92;50.20;94863.81;4147778;28;20049;-52
2022/06/29 08:40:53;;;;;;;12.80;6.30;;;;;;;26.01;49.72;94861.47;4163974;28;20564;-52
2022/06/29 08:42:56;;;;;;;8.23;6.53;;;;;;;26.02;49.03;94856.91;4166257;28;20104;-55
2022/06/29 08:44:57;;;;;;;11.38;6.93;;;;;;;26.12;48.97;94855.16;4157038;28;20049;-53
2022/06/29 08:47:07;;;;;;;11.45;5.82;;;;;;;26.05;48.99;94859.91;4159130;28;20084;-52
2022/06/29 08:49:09;;;;;;;11.20;5.95;;;;;;;25.84;50.00;94858.84;4156109;28;20080;-58
2022/06/29 08:51:18;;;;;;;10.32;6.03;;;;;;;26.07;48.73;94870.38;4158779;28;20107;-56
2022/06/29 08:53:21;;;;;;;6.45;5.30;;;;;;;26.32;48.00;94867.16;4154262;28;20147;-51
2022/06/29 08:55:22;;;;;;;7.75;5.35;;;;;;;26.32;47.32;94865.28;4147985;28;20531;-52
2022/06/29 08:57:25;;;;;;;9.13;5.65;;;;;;;25.92;48.07;94863.81;4149811;28;20053;-53
2022/06/29 08:59:27;;;;;;;10.18;5.80;;;;;;;26.13;47.90;94866.69;4156664;28;20049;-53
2022/06/29 09:01:52;;;;;;;8.40;5.30;;;;;;;26.14;47.42;94861.09;4168173;28;20459;-51
2022/06/29 09:03:54;;;;;;;11.95;5.85;;;;;;;26.18;46.76;94856.03;4154473;28;20117;-49
2022/06/29 09:06:01;;;;;;;8.50;5.45;;;;;;;26.14;46.81;94852.22;4155385;28;20050;-51
2022/06/29 09:08:03;;;;;;;6.65;5.00;;;;;;;26.32;46.64;94856.41;4158941;28;20045;-50
2022/06/29 09:10:07;;;;;;;7.18;4.82;;;;;;;26.51;45.78;94859.56;4159584;28;20053;-50
2022/06/29 09:12:17;;;;;;;6.82;5.38;;;;;;;26.75;45.48;94852.00;4158563;28;20057;-50
2022/06/29 09:14:19;;;;;;;7.03;5.45;;;;;;;26.92;45.26;94843.78;4158212;28;20136;-53
2022/06/29 09:16:21;;;;;;;7.95;5.10;;;;;;;27.10;46.07;94853.31;4158824;28;20411;-53
2022/06/29 09:18:31;;;;;;;7.35;5.13;;;;;;;27.22;45.95;94845.09;4157090;28;20084;-50
2022/06/29 09:20:40;;;;;;;6.32;4.57;;;;;;;27.35;45.04;94840.06;4158410;28;20050;-56
2022/06/29 09:22:52;;;;;;;7.20;4.90;;;;;;;27.44;43.88;94844.94;4146944;28;20131;-53
2022/06/29 09:24:54;;;;;;;6.72;4.43;;;;;;;27.47;43.32;94845.25;4148317;28;20532;-50
2022/06/29 09:27:16;;;;;;;7.00;4.40;;;;;;;27.53;44.28;94852.28;4160883;28;20037;-53
2022/06/29 09:29:23;;;;;;;5.00;4.15;;;;;;;27.65;43.28;94854.72;4150542;28;20100;-51
2022/06/29 09:31:25;;;;;;;5.53;4.68;;;;;;;27.79;43.34;94852.34;4146033;28;20057;-52
2022/06/29 09:33:29;;;;;;;5.75;4.47;;;;;;;27.87;43.03;94843.81;4162911;28;20060;-53
2022/06/29 09:35:32;;;;;;;5.47;4.50;;;;;;;27.95;43.47;94845.19;4165521;28;20088;-51
2022/06/29 09:37:34;;;;;;;7.72;4.25;;;;;;;28.07;42.73;94848.47;4153275;28;20093;-49
2022/06/29 09:39:49;;;;;;;11.48;5.07;;;;;;;28.15;42.95;94842.53;4162856;28;20133;-51
2022/06/29 09:41:58;;;;;;;8.60;5.97;;;;;;;28.24;42.72;94847.41;4171727;28;20556;-54
2022/06/29 09:43:59;;;;;;;6.68;4.63;;;;;;;28.16;41.89;94846.06;4150087;28;20106;-53